x

8413320 - Bar Harbor, Me (atgm1) Weather Station

8:30 - Thu 8th Dec 2016 All times are EST. -5 hours from GMT.

  • Wind
    1mph, 2mph gusts
  • Sea Temp 45°f
  • Ar Temp 37°f
  • Sea Pressure 1010.2mb
  • 8413320 - Bar Harbor, Me
  • 8413320 - Bar Harbor, Me

More Historic Weather Station data

Upgrade to MSW Pro to gain access to the past 30 days of data for over 8000 Wavebouys and Weather Stations around the globe.

Join Pro

Comparision Forecast

View Surf forecast
   
Qui 12/08 8:30 1 2 mph 1010.2mb 45f 37f
8:24 2 3 mph 1010.2mb 45f 36f
8:18  -  mph 1010.2mb 46f 36f
8:12  -  2 mph 1010.3mb 46f 35f
8:06 2 3 mph 1010.4mb 46f 35f
8:00 3 5 mph 1010.4mb 46f 35f
7:54 5 7 mph 1010.5mb 46f 34f
7:48 3 7 mph 1010.6mb 46f 34f
7:42 6 7 mph 1010.6mb 46f 35f
7:36 6 9 mph 1010.7mb 46f 34f
7:30 6 9 mph 1010.8mb 46f 35f
7:24 7 9 mph 1010.8mb 45f 34f
7:18 8 9 mph 1010.9mb 45f 34f
7:12 7 8 mph 1010.8mb 45f 34f
7:06 7 8 mph 1010.9mb 45f 35f
7:00 5 6 mph 1010.9mb 45f 34f
6:54 5 6 mph 1010.9mb 45f 34f
6:48 5 6 mph 1010.9mb 45f 35f
6:42 5 6 mph 1011mb 45f 34f
6:36 5 6 mph 1011mb 45f 34f
6:30 5 6 mph 1010.9mb 45f 34f
6:24 5 7 mph 1010.9mb 45f 34f
6:18 6
mph
1011mb 46f 34f
6:12 5 6 mph 1010.9mb 45f 34f
6:06 5 6 mph 1010.9mb 45f 34f
6:00 5 6 mph 1011.1mb 46f 34f
5:54 6 7 mph 1011mb 46f 34f
5:48 7 8 mph 1011mb 46f 34f
5:42 7 8 mph 1011.1mb 46f 34f
5:36 8 9 mph 1011.1mb 46f 34f
5:30 7 9 mph 1011.1mb 46f 34f
5:24 7 8 mph 1011.2mb 46f 34f
5:18 6 7 mph 1011.2mb 46f 34f
5:12 6 8 mph 1011.2mb 46f 34f
5:06 7 8 mph 1011.3mb 46f 34f
5:00 7 8 mph 1011.4mb 46f 34f
4:54 7 8 mph 1011.4mb 46f 34f
4:48 8 10 mph 1011.4mb 46f 34f
4:42 8 10 mph 1011.5mb 46f 34f
4:36 8 11 mph 1011.4mb 46f 34f
4:30 9 10 mph 1011.5mb 46f 34f
4:24 8 9 mph 1011.4mb 46f 34f
4:18 9 10 mph 1011.5mb 45f 34f
4:12 8 9 mph 1011.5mb 46f 35f
4:06 7 8 mph 1011.5mb 45f 35f
4:00 7 9 mph 1011.5mb 46f 35f
3:54 7
mph
1011.5mb 46f 35f
3:48 5 6 mph 1011.4mb 46f 35f
3:42 5 8 mph 1011.5mb 46f 35f
3:36 8
mph
1011.8mb 46f 35f
3:30 7 8 mph 1011.5mb 46f 35f
3:24 8 9 mph 1011.6mb 46f 35f
3:18 6 8 mph 1011.6mb 46f 35f
3:12 7 9 mph 1011.5mb 46f 35f
3:06 8 9 mph 1011.8mb 46f 35f
3:00 8 9 mph 1011.7mb 46f 35f
2:54 8 9 mph 1011.6mb 46f 35f
2:48 7 8 mph 1011.9mb 46f 35f
2:42 6 8 mph 1011.8mb 46f 35f
2:36 7 9 mph 1011.9mb 46f 35f
2:30 7 10 mph 1011.9mb 46f 35f
2:24 9 10 mph 1011.9mb 46f 35f
2:18 8 9 mph 1011.9mb 46f 35f
2:12 7 9 mph 1011.8mb 46f 35f
2:06 8 9 mph 1011.9mb 45f 35f
2:00 7 8 mph 1011.9mb 45f 35f
1:54 7
mph
1011.9mb 45f 35f
1:48 6
mph
1011.9mb 45f -
1:42 5 6 mph 1012mb 45f -
1:36 5 6 mph 1012mb 45f -
1:30 3 7 mph 1011.8mb 45f 35f
1:24 6 8 mph 1011.7mb 45f 35f
1:18 7 9 mph 1011.8mb 45f 35f
1:12 8 9 mph 1011.9mb 46f 35f
1:06 8 9 mph 1011.9mb 46f 36f
1:00 9
mph
1011.9mb 46f 36f
12:54 8
mph
1012mb 46f 36f
12:48 7 8 mph 1011.9mb 46f -
12:42 7 9 mph 1012.1mb 46f -
12:36 7 8 mph 1012.1mb 46f -
12:30 6 8 mph 1012.3mb 46f 37f
12:24 6 8 mph 1012.2mb 46f 37f
12:18 6 8 mph 1012.1mb 46f 37f
12:12 7 10 mph 1012.3mb 46f 37f
12:06 8 10 mph 1012.3mb 46f 37f
12:00 7 9 mph 1012.3mb 46f 37f
Qua 12/07 11:54 6 7 mph 1012.3mb 46f 37f
11:48 6
mph
1012.4mb 46f 36f
11:42 5 7 mph 1012.5mb 46f 36f
11:36 2 5 mph 1012.6mb 46f 37f
11:30 3 6 mph 1012.6mb 46f 36f
11:24 5 6 mph 1012.8mb 45f 37f
11:18 5 7 mph 1012.8mb 45f 36f
11:12 5 6 mph 1012.9mb 45f 36f
11:06 2 3 mph 1012.8mb 45f 36f
11:00 1 2 mph 1012.9mb 45f 35f
10:54 1 2 mph 1013.1mb 45f 35f
10:48  -  2 mph 1013.1mb 45f 35f
10:42 1 2 mph 1013.2mb 45f 35f
10:36 1 2 mph 1013.2mb 45f 35f
10:30 1 3 mph 1013.1mb 45f 35f
10:24 2 5 mph 1013.1mb 45f 35f
10:18 3 6 mph 1013mb 45f 35f
10:12 5 6 mph 1013mb 45f 35f
10:06 5 6 mph 1013mb 45f 36f
10:00 3 5 mph 1013mb 45f 36f
9:54  -  2 mph 1013.1mb 45f 36f
9:48 2 3 mph 1013.2mb 45f 36f
9:42 2 3 mph 1013.2mb 45f 36f
9:36 1 3 mph 1013.2mb 45f 36f
9:30 2 3 mph 1013.3mb 45f 35f
9:24 2 3 mph 1013.4mb 45f 36f
9:18 3 6 mph 1013.4mb 46f 36f
9:12 5 7 mph 1013.4mb 46f 36f
9:06 3 5 mph 1013.4mb 45f 36f
9:00 5 6 mph 1013.4mb 45f 36f
8:54 5 6 mph 1013.4mb 45f 36f
8:48 6 7 mph 1013.5mb 45f 36f
8:42 3 6 mph 1013.5mb 45f 36f
8:36 5 6 mph 1013.7mb 45f 36f
8:30 5 6 mph 1013.6mb 45f 36f
8:24 3 5 mph 1013.6mb 45f 36f
8:18 1 3 mph 1013.5mb 45f 36f
8:12 3
mph
1013.6mb 45f 36f
8:06 2 3 mph 1013.6mb 45f 36f
8:00 1 2 mph 1013.7mb 45f 36f
7:54 1 2 mph 1013.8mb 45f 35f
7:48 2 3 mph 1013.9mb 45f 35f
7:42  -  3 mph 1013.8mb 45f 35f
7:36 1 3 mph 1013.8mb 45f 35f
7:30 2 3 mph 1013.8mb 45f 35f
7:24  -  2 mph 1013.7mb 45f 35f
7:18 2
mph
1013.7mb 45f 35f
7:12 2
mph
1013.8mb 45f 35f
7:06  -  1 mph 1013.7mb 45f 35f
7:00 2 3 mph 1013.7mb 45f 35f
6:54 1 2 mph 1013.7mb 45f 35f
6:48  -  2 mph 1013.8mb 45f 35f
6:42  -  1 mph 1013.8mb 45f 35f
6:36  -  2 mph 1013.8mb 45f 35f
6:30 1 2 mph 1013.9mb 45f 35f
6:24  -  2 mph 1013.9mb 45f 34f
6:18 1 2 mph 1014.1mb 45f 34f
6:12 1 2 mph 1014.1mb 45f 34f
6:06 2
mph
1014.2mb 45f 34f
6:00 1
mph
1014.3mb 45f 35f
5:54  -  mph 1014.2mb 45f 35f
5:48  -  1 mph 1014.2mb 45f 35f
5:42  -  1 mph 1014.2mb 45f 35f
5:36  -  mph 1014.1mb 45f 35f
5:30  -  2 mph 1014mb 45f 34f
5:24 1 2 mph 1014mb 45f 34f
5:18  -  1 mph 1014mb 45f 34f
5:12 1 2 mph 1014.1mb 45f 34f
5:06  -  1 mph 1014mb 45f 34f
5:00 2 3 mph 1014mb 45f 34f
4:54 2
mph
1014mb 45f 34f
4:48 2 3 mph 1013.9mb 45f 33f
4:42 2 3 mph 1013.8mb 46f 33f
4:36 2 3 mph 1013.8mb 46f 33f
4:30 3
mph
1013.6mb 46f 33f
4:24 3 5 mph 1013.7mb 46f 33f
4:18 3 5 mph 1013.6mb 46f 33f
4:12 2 6 mph 1013.6mb 46f 33f
4:06 3 6 mph 1013.6mb 46f 33f
4:00 5 7 mph 1013.5mb 46f 33f
3:54 3 5 mph 1013.4mb 46f 32f
3:48 3
mph
1013.5mb 46f 32f
3:42 3 5 mph 1013.6mb 46f 32f
3:36 2 5 mph 1013.7mb 46f 32f
3:30 3
mph
1013.5mb 46f 32f
3:24 2
mph
1013.4mb 46f 32f
3:18 2
mph
1013.4mb 46f 32f
3:12 1 2 mph 1013.4mb 46f 32f
3:06 1 2 mph 1013.4mb 46f 32f
3:00 1 2 mph 1013.4mb 46f 32f
2:54 1 2 mph 1013.6mb 47f 32f
2:48  -  2 mph 1013.5mb 46f 32f
2:42  -  3 mph 1013.5mb 46f 32f
2:36 2 3 mph 1013.7mb 46f 32f
2:30 3 5 mph 1013.6mb 46f 31f
2:24 5 6 mph 1013.6mb 46f 31f
2:18 5 6 mph 1013.9mb 46f 32f
2:12 5 6 mph 1013.9mb 46f 31f
2:06 5
mph
1013.8mb 46f 31f
2:00 5 6 mph 1013.7mb 46f 31f
1:54 5 6 mph 1013.6mb 46f 31f
1:48 2 5 mph 1013.7mb 46f 32f
1:42 2 3 mph 1013.6mb 46f 31f
1:36 2
mph
1013.6mb 46f 31f
1:30 2
mph
1013.7mb 46f 31f
1:24 2 3 mph 1013.7mb 46f 31f
1:18 1 3 mph 1013.8mb 46f 31f
1:12 1 3 mph 1013.9mb 45f 31f
1:06 2 3 mph 1013.9mb 46f 31f
1:00 3 5 mph 1013.8mb 46f 30f
12:54 3 5 mph 1013.9mb 46f 30f
12:48 3 5 mph 1014.2mb 46f 30f
12:42 1 5 mph 1014.2mb 46f 30f
12:36 3 7 mph 1014.3mb 46f 30f
12:30 6 7 mph 1014.4mb 46f 30f
12:24 6 7 mph 1014.4mb 46f 30f
12:18 6 8 mph 1014.4mb 46f 30f
12:12 6 8 mph 1014.5mb 45f 29f
12:06 3 6 mph 1014.4mb 45f 29f
12:00 3 5 mph 1014.4mb 45f 29f
11:54 2 5 mph 1014.5mb 45f 29f
11:48 5 6 mph 1014.5mb 45f 29f
11:42 3 6 mph 1014.6mb 45f 29f
11:36 5 6 mph 1014.6mb 46f 29f
11:30 5 6 mph 1014.6mb 46f 29f
11:24 5 7 mph 1014.8mb 46f 29f
11:18 3 5 mph 1014.7mb 46f 28f
11:12 3 5 mph 1014.8mb 45f 28f
11:06 3 5 mph 1014.9mb 45f 28f
11:00 2 3 mph 1015mb 45f 29f
10:54  -  1 mph 1015mb 45f 29f
10:48 1 2 mph 1015.1mb 45f 29f
10:42 1 2 mph 1015.2mb 45f 29f
10:36  -  2 mph 1015.3mb 45f 29f
10:30  -  1 mph 1015.3mb 45f 29f
10:24  -  1 mph 1015.4mb 45f 29f
10:18 1 3 mph 1015.5mb 45f 29f
10:12 1 2 mph 1015.5mb 45f 29f
10:06 1 3 mph 1015.6mb 45f 29f
10:00 2 5 mph 1015.6mb 44f 29f
9:54 3 7 mph 1015.7mb 44f 28f
9:48 2 3 mph 1015.8mb 44f 29f
9:42  -  3 mph 1015.9mb 44f 28f
9:36  -  3 mph 1015.9mb 45f 29f
9:30  -  3 mph 1016mb 45f 29f
9:24 1 3 mph 1016mb 45f 28f
9:18  -  2 mph 1016mb 45f 28f
9:12  -  5 mph 1016mb 45f 28f
9:06 2 3 mph 1016mb 45f 28f
9:00 1 6 mph 1015.8mb 45f 28f
8:54 5 6 mph 1015.7mb 45f 28f
8:48 6 7 mph 1015.5mb 45f 28f
8:42 6 9 mph 1015.4mb 45f 28f
8:36 7 9 mph 1015.2mb 45f 28f
8:30 6 8 mph 1015.3mb 45f 28f
8:24 6 7 mph 1015.2mb 45f 28f
8:18 6 7 mph 1015.3mb 45f 27f
8:12 6 9 mph 1015.3mb 45f 27f
8:06 6 9 mph 1015.2mb 45f 28f
8:00 7 8 mph 1015mb 45f 28f
7:54 6 10 mph 1015.1mb 45f 28f
7:48 6 9 mph 1015.1mb 45f 28f
7:42 8 10 mph 1015.1mb 45f 27f
7:36 7 10 mph 1015.1mb 45f 27f
7:30 8 10 mph 1015.2mb 45f 27f
7:24 8 10 mph 1015.2mb 45f 27f
7:18 6 8 mph 1015.2mb 45f 27f
7:12 8 9 mph 1015.2mb 45f 27f
7:06 6 8 mph 1015.3mb 45f 28f
7:00 5 7 mph 1015.2mb 45f 27f
6:54 3 8 mph 1015.3mb 45f 27f
6:48 6 8 mph 1015.2mb 45f 27f
6:42 7 11 mph 1015mb 45f 28f
6:36 9 11 mph 1014.9mb 45f 28f
6:30 8 10 mph 1014.9mb 45f 27f
6:24 7 10 mph 1014.9mb 45f 27f
6:18 7 10 mph 1014.8mb 45f 27f
6:12 8 10 mph 1014.8mb 45f 27f
6:06 7 10 mph 1014.8mb 45f 27f
6:00 8 9 mph 1014.9mb 45f 27f
5:54 6 10 mph 1015mb 45f 27f
5:48 7 10 mph 1015mb 45f 28f
5:42 9 11 mph 1015mb 45f 27f
5:36 9 10 mph 1015.1mb 45f 27f
5:30 8 10 mph 1015.3mb 45f 28f
5:24 7 8 mph 1015.3mb 45f 28f
5:18 8 9 mph 1015.3mb 45f 27f
5:12 6 8 mph 1015.4mb 44f 28f
5:06 6 8 mph 1015.6mb 45f 28f
5:00 6 8 mph 1015.7mb 45f 28f
4:54 6 7 mph 1015.7mb 44f 28f
4:48 5 8 mph 1015.6mb 45f 28f
4:42 6 8 mph 1015.6mb 44f 28f
4:36 6 9 mph 1015.5mb 44f 28f
4:30 6 8 mph 1015.5mb 44f 28f
4:24 7 9 mph 1015.5mb 44f 28f
4:18 7 8 mph 1015.6mb 44f 28f
4:12 7 10 mph 1015.7mb 44f 28f
4:06 8 9 mph 1015.7mb 45f 28f
4:00 7 10 mph 1015.8mb 45f 28f
3:54 7 8 mph 1016mb 46f 28f
3:48 6 8 mph 1016.2mb 46f 28f
3:42 5 8 mph 1016.2mb 46f 28f
3:36 7 8 mph 1016.1mb 46f 28f
3:30 6 8 mph 1016.1mb 46f 28f
3:24 7 9 mph 1016.1mb 46f 28f
3:18 7 9 mph 1016.1mb 46f 28f
3:12 6 9 mph 1016.1mb 46f 28f
3:06 7 9 mph 1016.1mb 46f 28f
3:00 7 9 mph 1016mb 46f 28f
2:54 8 9 mph 1015.9mb 46f 28f
2:48 6 8 mph 1016mb 46f 28f
2:42 3 7 mph 1016mb 46f 28f
2:36 3 7 mph 1016mb 46f 28f
2:30 6 8 mph 1016.1mb 47f 28f
2:24 5 6 mph 1016.1mb 47f 28f
2:18 3 8 mph 1016.2mb 47f 28f
2:12 6 8 mph 1016.1mb 47f 28f
2:06 5 7 mph 1016.2mb 47f 28f
2:00 6 8 mph 1016.2mb 47f 28f
1:54 3 5 mph 1016.2mb 47f 28f
1:48 3 6 mph 1016.2mb 47f 28f
1:42 3 6 mph 1016.2mb 47f 28f
1:36 2 7 mph 1016.3mb 47f 28f
1:30 5 8 mph 1016.2mb 47f 28f
1:24 6 8 mph 1016.1mb 46f 28f
1:18 7 9 mph 1016mb 46f 28f
1:12 7 9 mph 1015.9mb 46f 28f
1:06 6 8 mph 1015.9mb 46f 28f
1:00 7 10 mph 1015.9mb 46f 28f
12:54 6 9 mph 1015.9mb 46f 28f
12:48 7 9 mph 1015.8mb 46f 28f
12:42 8 9 mph 1015.8mb 46f 28f
12:36 8 10 mph 1015.9mb 46f 28f
12:30 8 10 mph 1015.9mb 46f 28f
12:18 7 9 mph 1016mb 46f 28f
12:12 6 9 mph 1016.1mb 46f 28f
12:06 6 8 mph 1016.2mb 46f 28f
12:00 6 9 mph 1016.3mb 46f 28f
Ter 12/06 11:54 6 8 mph 1016.3mb 46f 28f
11:48 6 8 mph 1016.3mb 46f 28f
11:42 6 8 mph 1016.4mb 46f 28f
11:36 8 9 mph 1016.5mb 46f 28f
11:30 8 9 mph 1016.6mb 46f 28f
11:24 7 9 mph 1016.6mb 46f 28f
11:18 6 9 mph 1016.8mb 46f 28f
11:12 7 9 mph 1016.8mb 46f 28f
11:06 8 13 mph 1016.9mb 46f 28f
11:00 9 13 mph 1016.9mb 46f 28f
10:54 10 11 mph 1016.8mb 46f 28f
10:48 9 11 mph 1016.8mb 46f 29f
10:42 9 11 mph 1016.9mb 46f 28f
10:36 7 10 mph 1017mb 46f 29f
10:30 8 10 mph 1017mb 46f 29f
10:24 7 9 mph 1017mb 46f 29f
10:18 8 10 mph 1017mb 46f 29f
10:12 7 9 mph 1017mb 46f 29f
10:06 6 8 mph 1017.2mb 45f 29f
10:00 5 8 mph 1017.2mb 45f 28f
9:54 5 6 mph 1017mb 44f 28f
9:48 3 5 mph 1016.9mb 44f 28f
9:18 3 6 mph 1016.9mb 45f 28f
9:12 3 5 mph 1016.7mb 45f 29f
9:06 2 6 mph 1017mb 45f 29f
9:00 3 6 mph 1016.9mb 44f 29f
8:54 3 5 mph 1017mb 44f 28f
8:48 2 5 mph 1017mb 44f 29f
7:54 6 11 mph 1016.9mb 45f 30f
7:48 6 11 mph 1016.8mb 45f 30f
7:30 5 7 mph 1016.9mb 45f 30f
7:24 6 8 mph 1016.9mb 45f 30f
7:18 6 8 mph 1016.8mb 45f 30f
7:12 6 9 mph 1016.9mb 45f 30f
7:06 6 8 mph 1017mb 46f 30f
7:00 3 7 mph 1017.1mb 46f 30f
6:54 1 6 mph 1017mb 46f 29f
6:48 2 5 mph 1017mb 46f 29f
6:42 3 7 mph 1017mb 46f 29f
6:36 5 8 mph 1017.1mb 46f 29f
6:30 6 8 mph 1017.2mb 46f 29f
6:24 6 7 mph 1017.2mb 45f 29f
6:18 5 7 mph 1017.3mb 45f 29f
6:12 6 8 mph 1017.3mb 45f 29f
6:06 6 8 mph 1017.3mb 45f 29f
6:00 7 9 mph 1017.3mb 45f 28f
5:54 5 7 mph 1017.2mb 44f 29f
5:48 6 7 mph 1017.2mb 44f 29f
5:42 6 8 mph 1017.3mb 44f 29f
5:36 7 9 mph 1017.1mb 44f 30f
5:30 8 10 mph 1017.2mb 44f 30f
5:24 9 13 mph 1017.2mb 44f 30f
5:18 9 14 mph 1017.3mb 44f 30f
5:12 9 11 mph 1017.3mb 44f 30f
5:06 9 14 mph 1017.5mb 44f 30f
5:00 11 15 mph 1017.5mb 44f 30f
4:54 11 15 mph 1017.6mb 44f 30f
4:48 11 14 mph 1017.6mb 44f 29f
4:42 8 11 mph 1017.8mb 44f 30f
4:36 8 13 mph 1017.6mb 44f 30f
4:30 9 14 mph 1017.5mb 44f 30f
4:24 7 15 mph 1017.5mb 44f 30f
4:18 9 14 mph 1017.4mb 44f 30f
4:12 10 16 mph 1017.4mb 44f 30f
4:06 10 14 mph 1017.4mb 44f 30f
4:00 9 14 mph 1017.5mb 44f 31f
3:54 10 14 mph 1017.5mb 44f 30f
3:48 13 17 mph 1017.4mb 44f 30f
3:42 14 17 mph 1017.4mb 44f 30f
3:36 13 15 mph 1017.3mb 44f 30f
3:30 9 15 mph 1017.3mb 45f 30f
3:24 9 13 mph 1017.3mb 46f 30f
3:18 8 14 mph 1017.2mb 46f 30f
3:12 10 14 mph 1017.2mb 46f 30f
3:06 11 15 mph 1017.1mb 45f 30f
3:00 11 14 mph 1017mb 45f 30f
2:54 10 15 mph 1017mb 45f 30f
2:48 13 16 mph 1017.1mb 45f 30f
2:42 11 17 mph 1017.2mb 46f 30f
2:36 10 15 mph 1017.2mb 46f 30f
2:30 11 17 mph 1017.1mb 45f 30f
2:24 10 17 mph 1017.2mb 45f 31f
2:18 13 17 mph 1017.2mb 44f 30f
2:12 15 18 mph 1017.2mb 45f 30f
2:06 16 18 mph 1017.1mb 45f 31f
2:00 15 18 mph 1017.2mb 44f 31f
1:54 14 17 mph 1017.1mb 44f 30f
1:48 14 20 mph 1017.1mb 44f 30f
1:30 11 21 mph 1017.1mb 46f 30f
1:24 15 18 mph 1017mb 46f 31f
1:18 15 20 mph 1017.1mb 46f 30f
1:12 15 20 mph 1017.2mb 46f 30f
1:06 15 17 mph 1017.5mb 46f 30f
1:00 14 17 mph 1017.4mb 46f 31f
12:54 13 16 mph 1017.5mb 46f 30f
12:48 14 17 mph 1017.4mb 45f 30f
12:30 14 17 mph 1017.4mb 45f 30f
12:24 10 16 mph 1017.4mb 45f 30f
12:18 13 21 mph 1017.4mb 45f 30f
12:12 10 16 mph 1017.4mb 45f 30f
12:06 10 14 mph 1017.3mb 45f 30f
12:00 10 16 mph 1017.4mb 45f 30f
11:54 14 18 mph 1017.3mb 45f 30f
11:48 13 20 mph 1017.4mb 45f 30f
11:42 11 16 mph 1017.4mb 44f 30f
11:36 11 20 mph 1017.5mb 45f 30f
11:30 14 22 mph 1017.3mb 44f 30f
11:24 14 17 mph 1017.4mb 44f 29f
11:18 16 21 mph 1017.5mb 45f 29f
11:12 15 21 mph 1017.2mb 44f 30f
11:06 15 20 mph 1017.3mb 44f 29f
11:00 14 17 mph 1017.5mb 44f 29f
10:54 15 18 mph 1017.5mb 44f 29f
10:48 17 22 mph 1017.6mb 44f 29f
10:42 16 20 mph 1017.8mb 44f 29f
10:36 14 20 mph 1017.9mb 44f 30f
10:30 16 20 mph 1017.9mb 45f 29f
10:24 13 17 mph 1018.1mb 44f 29f
10:18 13 18 mph 1018.1mb 44f 29f
10:12 13 17 mph 1018mb 44f 29f
10:06 13 17 mph 1018.2mb 44f 29f
10:00 14 20 mph 1018.2mb 44f 29f
9:54 16 18 mph 1018.1mb 44f 28f
9:48 16 21 mph 1018.2mb 44f 28f
9:42 16 21 mph 1018.2mb 44f 28f
9:36 17 24 mph 1018.1mb 43f 28f
9:30 15 20 mph 1018mb 43f 28f
9:24 15 20 mph 1017.8mb 44f 28f
9:18 15 20 mph 1017.8mb 44f 28f
9:12 14 18 mph 1017.8mb 44f 28f
9:06 16 18 mph 1017.8mb 43f 28f
9:00 11 14 mph 1018mb 43f 28f
8:54 13 15 mph 1018mb 43f 27f
8:48 13 15 mph 1018.1mb 43f 27f
8:42 13 16 mph 1018.1mb 43f 27f
8:36 13 16 mph 1018.2mb 43f 28f
8:30 11 17 mph 1018mb 43f 28f
8:24 13 18 mph 1017.8mb 43f 27f
8:18 14 18 mph 1017.7mb 44f 27f
8:12 13 17 mph 1017.9mb 44f 27f
8:06 13 17 mph 1017.9mb 43f 27f
8:00 14 17 mph 1017.7mb 44f 27f
7:54 14 20 mph 1017.7mb 45f 27f
7:48 13 20 mph 1017.6mb 45f 27f
7:42 14 15 mph 1017.6mb 44f 27f
7:36 11 16 mph 1017.6mb 44f 27f
7:30 10 14 mph 1017.5mb 44f 27f
7:24 10 14 mph 1017.4mb 44f 27f
7:18 10 14 mph 1017.2mb 45f 27f
7:12 10 13 mph 1017.1mb 45f 26f
7:06 9 13 mph 1017.1mb 44f 26f
7:00 10 13 mph 1017mb 45f 26f
6:54 8 10 mph 1017mb 45f 26f
6:48 10 13 mph 1016.9mb 45f 26f
6:42 10 14 mph 1016.9mb 45f 27f
6:36 9 13 mph 1016.8mb 45f 27f
6:30 9 11 mph 1016.7mb 45f 26f
6:24 10 14 mph 1016.6mb 45f 26f
6:18 9 14 mph 1016.4mb 45f 26f
6:12 8 11 mph 1016.4mb 45f 27f
6:06 9 11 mph 1016.2mb 45f 26f
6:00 9 14 mph 1016.1mb 45f 27f
5:54 9 15 mph 1016.1mb 45f 27f
5:48 10 16 mph 1016mb 45f 28f
5:42 13 15 mph 1016mb 45f 28f
5:36 11 15 mph 1015.9mb 45f 27f
5:30 13 15 mph 1015.8mb 45f 27f
5:24 11 15 mph 1015.6mb 45f 27f
5:18 11 15 mph 1015.6mb 45f 28f
5:12 10 14 mph 1015.4mb 44f 27f
5:06 10 13 mph 1015.3mb 44f 27f
5:00 9 14 mph 1015.4mb 44f 27f
4:54 10 13 mph 1015.4mb 44f 27f
4:48 11 15 mph 1015.4mb 44f 27f
4:42 10 14 mph 1015.3mb 44f 27f
4:36 11 15 mph 1015.2mb 44f 28f
4:30 11 16 mph 1015mb 45f 28f
4:24 13 15 mph 1014.9mb 45f 28f
4:18 14 16 mph 1015mb 45f 28f
4:12 13 15 mph 1014.9mb 45f 28f
4:06 13 14 mph 1014.9mb 44f 28f
4:00 13 14 mph 1014.8mb 45f 28f
3:54 11 15 mph 1014.7mb 44f 28f
3:48 11 16 mph 1014.7mb 44f 28f
3:42 14 16 mph 1014.6mb 44f 28f
3:36 14 16 mph 1014.4mb 44f 28f
3:30 13 14 mph 1014.4mb 44f 28f
3:24 11 15 mph 1014.4mb 44f 28f
3:18 11 15 mph 1014.3mb 44f 28f
3:12 13 14 mph 1014.3mb 44f 28f
3:06 10 14 mph 1014.3mb 44f 28f
3:00 11 14 mph 1014.3mb 44f 29f
2:54 10 14 mph 1014.3mb 44f 29f
2:48 10 16 mph 1014.2mb 44f 28f
2:42 10 15 mph 1014.3mb 44f 29f
2:36 13 16 mph 1014.1mb 43f 29f
2:30 13 16 mph 1014mb 43f 29f
2:24 11 16 mph 1013.9mb 43f 29f
2:18 14 17 mph 1013.7mb 44f 29f
2:12 13 17 mph 1013.6mb 44f 29f
2:06 13 16 mph 1013.6mb 44f 29f
2:00 10 16 mph 1013.5mb 44f 29f
1:54 13 16 mph 1013.4mb 44f 29f
1:48 11 16 mph 1013.3mb 44f 29f
1:42 13 17 mph 1013.2mb 44f 29f
1:36 11 16 mph 1013.1mb 45f 30f
1:30 10 15 mph 1013mb 44f 30f
1:24 13 17 mph 1012.9mb 43f 29f
1:18 13 17 mph 1012.8mb 43f 29f
1:12 10 15 mph 1012.8mb 43f 29f
1:06 14 18 mph 1012.8mb 45f 29f
1:00 13 16 mph 1012.7mb 45f 29f
12:54 11 16 mph 1012.7mb 45f 29f
12:48 13 17 mph 1012.6mb 45f 29f
12:42 13 17 mph 1012.5mb 45f 29f
12:36 14 18 mph 1012.3mb 45f 29f
12:30 14 17 mph 1012.2mb 45f 29f
12:24 11 17 mph 1012.2mb 45f 29f
12:18 13 18 mph 1012mb 45f 29f
12:12 10 15 mph 1011.8mb 45f 29f
12:06 11 14 mph 1011.7mb 45f 29f
12:00 10 14 mph 1011.6mb 45f 29f
Seg 12/05 11:54 10 14 mph 1011.5mb 45f 29f
11:48 9 13 mph 1011.5mb 45f 30f
11:42 9 13 mph 1011.4mb 45f 30f
11:36 9 14 mph 1011.5mb 45f 29f
11:30 9 13 mph 1011.4mb 45f 29f
11:24 10 14 mph 1011.4mb 45f 30f
11:18 10 14 mph 1011.3mb 45f 30f
11:12 11 15 mph 1011.1mb 45f 30f
11:06 8 11 mph 1011.1mb 45f 31f
11:00 7 11 mph 1011.1mb 45f 31f
10:54 8 10 mph 1011.1mb 45f 31f
10:48 7 9 mph 1011.1mb 45f 31f
10:42 7 8 mph 1011mb 45f 31f
10:36 5 6 mph 1011mb 45f 31f
10:30 3 9 mph 1011mb 45f 31f
10:24 6 9 mph 1010.9mb 45f 31f
10:18 8 10 mph 1010.9mb 45f 31f
10:12 7 10 mph 1010.9mb 45f 31f
10:06 9 10 mph 1010.8mb 45f 31f
10:00 6 8 mph 1010.9mb 45f 30f
9:54 6 8 mph 1010.9mb 45f 30f
9:48 7 9 mph 1011mb 45f 30f
9:42 7 8 mph 1011mb 45f 30f
9:36 6 8 mph 1010.9mb 45f 30f
9:30 7 8 mph 1010.8mb 45f 30f
9:24 7 9 mph 1010.8mb 45f 30f
9:18 8 10 mph 1010.7mb 45f 30f
9:12 10 13 mph 1010.7mb 45f 30f
9:06 10 13 mph 1010.7mb 45f 30f
9:00 9 11 mph 1010.6mb 45f 30f
8:54 8 11 mph 1010.7mb 45f 30f
8:48 6 8 mph 1010.8mb 45f 30f
8:42 5 8 mph 1010.8mb 45f 30f
8:36 5 7 mph 1010.8mb 45f 30f
8:30 7 8 mph 1010.8mb 45f 31f
8:24 7 10 mph 1010.8mb 45f 31f
8:18 8 10 mph 1010.9mb 45f 31f
8:12 8 10 mph 1010.9mb 45f 31f
8:06 7 10 mph 1011mb 45f 31f
8:00 7 9 mph 1011.1mb 45f 31f
7:54 9 11 mph 1011.1mb 45f 30f
7:48 8 13 mph 1011.2mb 45f 30f
7:42 11 14 mph 1011.3mb 45f 30f
7:36 8 13 mph 1011.2mb 45f 31f
7:30 10 13 mph 1011.3mb 45f 30f
7:24 11 14 mph 1011.4mb 45f 30f
7:18 13 16 mph 1011.4mb 45f 31f
7:12 13 16 mph 1011.5mb 45f 31f
7:06 13 16 mph 1011.5mb 45f 31f
7:00 14 18 mph 1011.6mb 45f 31f
6:54 15 18 mph 1011.7mb 45f 31f
6:48 15 17 mph 1011.8mb 45f 31f
6:42 14 16 mph 1011.9mb 46f 31f
6:36 14 16 mph 1012mb 46f 31f
6:30 14 16 mph 1012.1mb 46f 31f
6:24 14 16 mph 1012.1mb 45f 30f
6:18 14 16 mph 1012.2mb 45f 31f
6:12 15 17 mph 1012.3mb 45f 30f
6:06 13 15 mph 1012.4mb 46f 31f
6:00 14 15 mph 1012.5mb 46f 31f
5:54 13 15 mph 1012.6mb 46f 31f
5:48 14 15 mph 1012.6mb 46f 31f
5:42 14 16 mph 1012.6mb 46f 31f
5:36 14 16 mph 1012.6mb 46f 31f
5:30 13 15 mph 1012.7mb 46f 31f
5:24 14 15 mph 1012.7mb 46f 31f
5:18 14 15 mph 1012.7mb 46f 31f
5:12 13 14 mph 1013mb 46f 31f
5:06 11 13 mph 1013.1mb 46f 31f
5:00 10 11 mph 1013.2mb 46f 31f
4:54 5 8 mph 1013.2mb 46f 31f
4:48 5 7 mph 1013.3mb 46f 30f
4:42 5 6 mph 1013.5mb 46f 30f
4:36 6 7 mph 1013.4mb 45f 30f
4:30 6 7 mph 1013.4mb 45f 29f
4:24 6 7 mph 1013.5mb 45f 29f
4:18 3 6 mph 1013.5mb 46f 30f
4:12 5 6 mph 1013.5mb 45f 30f
4:06 3 7 mph 1013.5mb 46f 30f
4:00 5 8 mph 1013.5mb 46f 30f
3:54 5 7 mph 1013.5mb 46f 30f
3:48 6 8 mph 1013.5mb 46f 30f
3:42 6 8 mph 1013.5mb 46f 30f
3:36 7 8 mph 1013.5mb 46f 31f
3:30 7 9 mph 1013.4mb 46f 31f
3:24 8 10 mph 1013.4mb 46f 31f
3:18 8 10 mph 1013.4mb 46f 31f
3:12 6 11 mph 1013.4mb 46f 31f
3:06 8 10 mph 1013.4mb 46f 31f
3:00 8 11 mph 1013.3mb 46f 32f
2:54 8 9 mph 1013.3mb 46f 31f
2:48 8 13 mph 1013.4mb 46f 31f
2:42 7 9 mph 1013.5mb 47f 31f
2:36 9 11 mph 1013.7mb 47f 31f
2:30 8 9 mph 1013.8mb 47f 31f
2:24 6 10 mph 1013.8mb 47f 31f
2:18 7 13 mph 1013.8mb 47f 31f
2:12 8 10 mph 1013.7mb 47f 31f
2:06 8 10 mph 1013.8mb 47f 30f
2:00 6 9 mph 1013.9mb 47f 30f
1:54 2 5 mph 1014mb 47f 30f
1:48 5 6 mph 1014.1mb 47f 30f
1:42 5 6 mph 1014.2mb 47f 29f
1:36 3 6 mph 1014.3mb 47f 29f
1:30 2 6 mph 1014.4mb 47f 29f
1:24 3 7 mph 1014.5mb 47f 29f
1:18 6 7 mph 1014.5mb 47f 29f
1:12 3 7 mph 1014.5mb 47f 29f
1:06 5 6 mph 1014.6mb 47f 29f
1:00 5 7 mph 1014.6mb 47f 29f
12:54 6 8 mph 1014.7mb 47f 29f
12:48 2 5 mph 1014.7mb 47f 29f
12:42 3 7 mph 1014.9mb 47f 28f
12:36 3 5 mph 1015.2mb 47f 28f
12:30 3 9 mph 1015.4mb 47f 28f
12:24 8 11 mph 1015.2mb 47f 28f
12:18 7 11 mph 1015.2mb 47f 28f
12:12 7 11 mph 1015.3mb 47f 28f
12:06 7 9 mph 1015.7mb 47f 28f
12:00 3 7 mph 1015.9mb 47f 28f
11:54 6 7 mph 1016mb 47f 28f
11:48 6 8 mph 1016.1mb 47f 28f
11:42 5
mph
1016.3mb 47f 28f
11:36 3 5 mph 1016.5mb 47f 28f
11:30 3 6 mph 1016.6mb 47f 28f
11:24 3 6 mph 1016.7mb 47f 28f
11:18 2 5 mph 1016.9mb 47f 28f
11:12 5 6 mph 1016.9mb 47f 28f
11:06 2 5 mph 1017.1mb 47f 28f
11:00 3 5 mph 1017.2mb 46f 28f
10:54 2 6 mph 1017.2mb 46f 28f
10:48 6
mph
1017.2mb 46f 27f
10:42 3 6 mph 1017.3mb 46f 28f
10:36 3 6 mph 1017.3mb 46f 27f
10:30 2 5 mph 1017.4mb 46f 27f
10:24 5 6 mph 1017.4mb 46f 27f
10:18 3 5 mph 1017.4mb 47f 27f
10:12 2 3 mph 1017.5mb 47f 27f
10:06 2 3 mph 1017.7mb 47f 27f
10:00 2 3 mph 1017.9mb 47f 27f
9:54 1 3 mph 1017.9mb 47f 27f
9:48 3 5 mph 1018mb 47f 27f
9:42 2 5 mph 1018.1mb 46f 27f
9:36 1 5 mph 1018.6mb 46f 27f
9:30  -  5 mph 1018.5mb 46f 27f
9:24 3 7 mph 1018.2mb 46f 27f
9:18 5 7 mph 1018mb 46f 27f
9:12 3 5 mph 1018mb 46f 27f
9:06 2 5 mph 1018.2mb 46f 27f
9:00 3 5 mph 1018.4mb 46f 26f
8:54 5 6 mph 1018.6mb 46f 26f
8:48 5 6 mph 1018.6mb 46f 26f
8:42 3 6 mph 1018.8mb 46f 26f
8:36 3 6 mph 1019mb 46f 26f
8:30 5 6 mph 1019mb 46f 26f
8:24 3 6 mph 1019.1mb 46f 26f
8:18 2 5 mph 1019.2mb 46f 26f
8:12 3 5 mph 1019.2mb 46f 25f
8:06 3 6 mph 1019.3mb 46f 25f
8:00 6 8 mph 1019.4mb 46f 25f
7:54 6 7 mph 1019.1mb 46f 25f
7:48 6 7 mph 1018.9mb 46f 25f
7:42 2 5 mph 1018.4mb 46f 25f
7:36 3 5 mph 1018.4mb 46f 25f
7:30 3 5 mph 1018.6mb 46f 25f
7:24 2 5 mph 1018.6mb 46f 26f
7:18 1 5 mph 1018.6mb 46f 26f
7:12 3 6 mph 1018.9mb 46f 25f
7:06 3 6 mph 1019.2mb 47f 25f
7:00 5 6 mph 1019.2mb 46f 25f
6:54 5 6 mph 1019.4mb 46f 25f
6:48 3 6 mph 1019.3mb 46f 24f
6:42 5 6 mph 1019.5mb 46f 24f
6:36 2 5 mph 1019.3mb 47f 24f
6:30 2 5 mph 1019.3mb 47f 24f
6:24 2 5 mph 1019.6mb 47f 24f
6:18 6
mph
1019.7mb 46f 23f
6:12 5 7 mph 1019.6mb 46f 24f
6:06 3 7 mph 1019.7mb 46f 24f
6:00 5 6 mph 1019.7mb 46f 24f
5:54 6 7 mph 1019.7mb 46f 24f
5:48 5 7 mph 1019.7mb 47f 24f
5:42 6 9 mph 1019.8mb 47f 24f
5:36 7 8 mph 1019.8mb 47f 24f
5:30 6 8 mph 1019.6mb 47f 23f
5:24 6 8 mph 1019.6mb 47f 23f
5:18 6 8 mph 1019.6mb 47f 23f
5:12 6 8 mph 1019.5mb 47f 23f
5:06 6 7 mph 1019.4mb 47f 23f
5:00 6 7 mph 1019.2mb 47f 24f
4:54 6 7 mph 1018.9mb 47f 23f
4:48 6 7 mph 1018.7mb 47f 24f
4:42 6 7 mph 1018.6mb 47f 24f
4:36 6 7 mph 1018.6mb 47f 24f
4:30 6 7 mph 1018.6mb 47f 24f
4:24 5 6 mph 1018.6mb 47f 24f
4:18 5 7 mph 1018.8mb 47f 23f
4:12 5 8 mph 1018.8mb 47f 24f
4:06 7 9 mph 1018.7mb 47f 24f
4:00 8 9 mph 1018.8mb 47f 24f
3:54 6 8 mph 1019mb 47f 24f
3:48 6 8 mph 1019mb 47f 24f
3:42 6 9 mph 1018.9mb 47f 24f
3:36 6 7 mph 1018.8mb 47f 24f
3:30 6 10 mph 1018.9mb 47f 25f
3:24 8 10 mph 1019mb 47f 25f
3:18 7 10 mph 1019.2mb 47f 25f
3:12 8 10 mph 1019.3mb 47f 25f
3:06 6 9 mph 1019.5mb 47f 24f
3:00 6 8 mph 1019.6mb 47f 24f
2:54 6 9 mph 1019.5mb 47f 24f
2:48 8 11 mph 1019.4mb 47f 26f
2:42 7 9 mph 1019.4mb 47f 25f
2:36 3 7 mph 1019.6mb 47f 25f
2:30 5 7 mph 1019.6mb 47f 25f
2:24 3 7 mph 1019.7mb 47f 24f
2:18 5 9 mph 1019.4mb 47f 26f
2:12 5 7 mph 1019.5mb 47f 25f
2:06 6 7 mph 1019.6mb 47f 24f
2:00 6 9 mph 1019.7mb 47f 25f
1:54 6 11 mph 1019.8mb 47f 25f
1:48 9 11 mph 1019.8mb 47f 26f
1:42 10 13 mph 1019.8mb 47f 26f
1:36 11 14 mph 1020mb 47f 26f
1:30 10 13 mph 1020mb 47f 26f
1:24 10 11 mph 1020mb 47f 26f
1:18 8 10 mph 1020.1mb 47f 26f
1:12 7 9 mph 1020mb 47f 26f
1:06 7 11 mph 1020mb 47f 26f
1:00 8 11 mph 1020.2mb 47f 26f
12:54 8 11 mph 1020.3mb 47f 27f
12:48 7 14 mph 1020.2mb 47f -
12:42 7 10 mph 1020mb 47f -
12:36 6 10 mph 1019.9mb 47f -
12:30 8 11 mph 1020mb 47f 26f
12:24 9 13 mph 1020.1mb 47f 26f
12:18 8 10 mph 1020.2mb 47f 26f
12:12 8 10 mph 1020.3mb 47f 26f
12:06 7 10 mph 1020.3mb 47f 26f
12:00 6 8 mph 1020.4mb 47f 26f
Dom 12/04 11:54 7 10 mph 1020.5mb 47f 26f
11:48 9 15 mph 1020.4mb 47f 27f
11:42 10 15 mph 1020.3mb 47f 28f
11:36 11 16 mph 1020.3mb 47f 28f
11:30 8 16 mph 1020.3mb 47f 28f
11:24 8 13 mph 1020.3mb 47f 28f
11:18 10 14 mph 1020.4mb 46f 28f
11:12 9 13 mph 1020.6mb 46f 28f
11:06 10 14 mph 1020.5mb 46f 28f
11:00 11 14 mph 1020.4mb 46f 28f
10:54 11 14 mph 1020.5mb 46f 27f
10:48 11 15 mph 1020.4mb 47f 28f
10:42 13 15 mph 1020.5mb 47f 27f
10:36 13 15 mph 1020.5mb 47f 28f
10:30 10 14 mph 1020.6mb 47f 28f
10:24 10 16 mph 1020.7mb 47f 28f
10:18 10 15 mph 1020.7mb 47f 28f
10:12 9 14 mph 1020.8mb 46f 28f
10:06 8 14 mph 1020.9mb 46f 28f
10:00 11 16 mph 1020.9mb 46f 28f
9:54 10 17 mph 1020.8mb 46f 28f
9:48 11 17 mph 1020.8mb 47f 28f
9:42 11 17 mph 1020.7mb 46f 28f
9:36 11 17 mph 1020.6mb 47f 28f
9:30 15 18 mph 1020.6mb 46f 28f
9:24 11 17 mph 1020.5mb 46f 28f
9:18 14 18 mph 1020.6mb 46f 28f
9:12 13 18 mph 1020.4mb 46f 28f
9:06 13 16 mph 1020.3mb 46f 29f
9:00 11 17 mph 1020.4mb 46f 29f
8:54 13 15 mph 1020.5mb 46f 29f
8:48 14 16 mph 1020.5mb 46f 29f
8:42 13 17 mph 1020.6mb 45f 29f
8:36 9 21 mph 1020.6mb 45f 29f
8:30 9 17 mph 1020.7mb 45f 29f
8:24 11 17 mph 1020.7mb 45f 29f
8:18 13 18 mph 1020.8mb 45f 29f
8:12 10 15 mph 1020.7mb 45f 29f
8:06 11 15 mph 1020.7mb 45f 29f
8:00 13 16 mph 1020.7mb 44f 29f
7:54 9 14 mph 1020.7mb 45f 30f
7:48 14 16 mph 1020.7mb 44f 29f
7:42 13 16 mph 1020.7mb 45f 29f
7:36 11 17 mph 1020.7mb 45f 29f
7:30 11 17 mph 1020.7mb 45f 30f
7:24 13 21 mph 1020.7mb 45f 30f
7:18 11 16 mph 1020.7mb 45f 30f
7:12 13 17 mph 1020.6mb 44f 30f
7:06 13 16 mph 1020.6mb 45f 30f
7:00 10 16 mph 1020.6mb 44f 30f
6:54 13 17 mph 1020.5mb 45f 30f
6:48 15 20 mph 1020.5mb 45f 31f
6:42 14 22 mph 1020.3mb 45f 31f
6:36 17 24 mph 1020.2mb 45f 31f
6:30 15 21 mph 1020.3mb 45f 31f
6:24 14 17 mph 1020.2mb 45f 31f
6:18 14 20 mph 1020.1mb 45f 31f
6:12 14 18 mph 1020.2mb 45f 31f
6:06 14 20 mph 1020.2mb 44f 31f
6:00 14 17 mph 1020.2mb 44f 31f
5:54 15 21 mph 1020.1mb 44f 31f
5:48 17 22 mph 1020.1mb 44f 31f
5:42 17 25 mph 1019.9mb 44f 31f
5:36 16 22 mph 1019.8mb 46f 31f
5:30 15 22 mph 1019.8mb 46f 31f
5:24 15 22 mph 1019.7mb 46f 31f
5:18 16 21 mph 1019.6mb 46f 31f
5:12 17 22 mph 1019.6mb 46f 31f
5:06 14 20 mph 1019.7mb 46f 31f
5:00 13 20 mph 1019.8mb 46f 31f
4:54 13 23 mph 1019.8mb 46f 31f
4:48 14 21 mph 1019.6mb 46f 31f
4:42 15 20 mph 1019.5mb 46f 32f
4:36 14 20 mph 1019.5mb 46f 32f
4:30 14 18 mph 1019.4mb 46f 32f
4:24 11 15 mph 1019.5mb 46f 32f
4:18 11 17 mph 1019.3mb 46f 32f
4:12 10 20 mph 1019.2mb 46f 32f
4:06 14 18 mph 1019.2mb 46f 32f
4:00 11 18 mph 1019.1mb 46f 32f
3:54 10 15 mph 1019.2mb 46f 33f
3:48 14 18 mph 1019mb 46f 33f
3:42 15 22 mph 1018.9mb 46f 33f
3:36 15 24 mph 1018.8mb 46f 33f
3:30 20 23 mph 1018.6mb 46f 33f
3:24 17 24 mph 1018.6mb 46f 33f
3:18 18 23 mph 1018.4mb 46f 33f
3:12 16 22 mph 1018.5mb 46f 33f
3:06 16 22 mph 1018.4mb 46f 33f
3:00 16 22 mph 1018.5mb 45f 33f
2:54 13 22 mph 1018.4mb 45f 33f
2:48 17 23 mph 1018.2mb 46f 33f
2:42 18 23 mph 1018.2mb 46f 33f
2:36 17 21 mph 1018.3mb 46f 33f
2:30 15 23 mph 1018.3mb 45f 33f
2:24 14 22 mph 1018.2mb 45f 33f